createdAt,value
2023-05-10T00:02:39.877Z,12.20
2023-05-10T00:05:42.803Z,12.15
2023-05-10T00:08:46.456Z,12.06
2023-05-10T00:11:49.023Z,11.98
2023-05-10T00:14:51.360Z,11.92
2023-05-10T00:17:54.063Z,11.86
2023-05-10T00:20:56.396Z,11.83
2023-05-10T00:23:59.055Z,11.73
2023-05-10T00:27:01.735Z,11.63
2023-05-10T00:30:04.571Z,11.58
2023-05-10T00:33:07.106Z,11.54
2023-05-10T00:36:09.902Z,11.45
2023-05-10T00:39:12.174Z,11.38
2023-05-10T00:42:14.756Z,11.36
2023-05-10T00:45:17.684Z,11.25
2023-05-10T00:48:20.631Z,11.19
2023-05-10T00:51:23.060Z,11.16
2023-05-10T00:54:25.754Z,11.08
2023-05-10T00:57:28.102Z,11.10
2023-05-10T01:00:30.957Z,11.03
2023-05-10T01:03:33.656Z,11.01
2023-05-10T01:06:36.441Z,10.94
2023-05-10T01:09:38.860Z,10.85
2023-05-10T01:12:42.471Z,10.75
2023-05-10T01:15:45.880Z,10.68
2023-05-10T01:18:49.460Z,10.67
2023-05-10T01:21:55.435Z,10.63
2023-05-10T01:25:07.737Z,10.62
2023-05-10T01:28:18.922Z,10.57
2023-05-10T01:31:24.644Z,10.55
2023-05-10T01:34:33.184Z,10.59
2023-05-10T01:37:41.992Z,10.71
2023-05-10T01:40:51.944Z,10.75
2023-05-10T01:43:57.074Z,10.82
2023-05-10T01:47:04.287Z,10.85
2023-05-10T01:50:11.199Z,10.85
2023-05-10T01:53:14.649Z,10.92
2023-05-10T01:56:17.963Z,10.95
2023-05-10T01:59:22.642Z,11.06
2023-05-10T02:02:25.888Z,11.06
2023-05-10T02:05:30.145Z,11.03
2023-05-10T02:08:34.073Z,11.04
2023-05-10T02:11:38.675Z,11.05
2023-05-10T02:14:42.477Z,11.10
2023-05-10T02:17:47.265Z,11.13
2023-05-10T02:20:50.176Z,11.16
2023-05-10T02:23:54.714Z,11.28
2023-05-10T02:26:57.211Z,11.33
2023-05-10T02:30:00.004Z,11.55
2023-05-10T02:33:04.623Z,11.57
2023-05-10T02:36:08.380Z,11.60
2023-05-10T02:39:14.498Z,11.62
2023-05-10T02:42:19.436Z,11.61
2023-05-10T02:45:24.194Z,11.64
2023-05-10T02:48:27.284Z,11.65
2023-05-10T02:51:35.170Z,11.68
2023-05-10T02:54:42.237Z,11.68
2023-05-10T02:57:49.808Z,11.83
2023-05-10T03:00:52.382Z,11.79
2023-05-10T03:03:55.111Z,11.77
2023-05-10T03:06:57.666Z,11.80
2023-05-10T03:10:01.129Z,11.85
2023-05-10T03:13:13.300Z,11.89
2023-05-10T03:16:17.791Z,11.86
2023-05-10T03:19:28.828Z,11.79
2023-05-10T03:22:38.680Z,11.79
2023-05-10T03:25:42.241Z,11.65
2023-05-10T03:28:44.776Z,11.56
2023-05-10T03:31:47.680Z,11.54
2023-05-10T03:34:50.527Z,11.47
2023-05-10T03:37:53.207Z,11.43
2023-05-10T03:40:56.697Z,11.40
2023-05-10T03:43:59.323Z,11.48
2023-05-10T03:47:01.688Z,11.45
2023-05-10T03:50:04.962Z,11.58
2023-05-10T03:53:07.392Z,11.47
2023-05-10T03:56:09.974Z,11.56
2023-05-10T03:59:12.368Z,11.52
2023-05-10T04:02:15.044Z,11.60
2023-05-10T04:05:17.717Z,11.61
2023-05-10T04:08:20.106Z,11.67
2023-05-10T04:11:23.046Z,11.73
2023-05-10T04:14:25.627Z,11.80
2023-05-10T04:17:28.216Z,11.99
2023-05-10T04:20:30.628Z,12.09
2023-05-10T04:23:33.206Z,12.26
2023-05-10T04:26:35.541Z,12.15
2023-05-10T04:29:39.388Z,12.13
2023-05-10T04:32:41.705Z,12.25
2023-05-10T04:35:45.680Z,12.29
2023-05-10T04:38:48.212Z,12.32
2023-05-10T04:41:50.857Z,12.13
2023-05-10T04:44:53.184Z,12.00
2023-05-10T04:47:56.156Z,11.94
2023-05-10T04:50:58.568Z,11.88
2023-05-10T04:54:06.566Z,11.96
2023-05-10T04:57:09.120Z,12.14
2023-05-10T05:00:12.362Z,13.42
2023-05-10T05:03:14.788Z,14.96
2023-05-10T05:06:17.477Z,15.52
2023-05-10T05:09:19.784Z,14.70
2023-05-10T05:12:22.357Z,14.14
2023-05-10T05:15:24.806Z,13.93
2023-05-10T05:18:29.992Z,13.83
2023-05-10T05:21:33.672Z,13.77
2023-05-10T05:24:37.539Z,13.57
2023-05-10T05:27:39.772Z,13.25
2023-05-10T05:30:42.668Z,13.28
2023-05-10T05:33:45.073Z,13.52
2023-05-10T05:36:47.732Z,13.93
2023-05-10T05:39:50.776Z,14.13
2023-05-10T05:42:53.593Z,14.61
2023-05-10T05:45:56.150Z,14.97
2023-05-10T05:48:58.828Z,15.17
2023-05-10T05:52:04.452Z,15.36
2023-05-10T05:55:07.215Z,15.59
2023-05-10T05:58:09.606Z,15.31
2023-05-10T06:01:12.238Z,15.48
2023-05-10T06:04:14.949Z,15.56
2023-05-10T06:07:17.546Z,15.90
2023-05-10T06:10:20.399Z,15.97
2023-05-10T06:13:22.734Z,15.71
2023-05-10T06:16:25.464Z,15.48
2023-05-10T06:19:28.349Z,15.69
2023-05-10T06:22:30.994Z,15.70
2023-05-10T06:25:33.347Z,16.36
2023-05-10T06:28:36.082Z,16.71
2023-05-10T06:31:38.502Z,17.18
2023-05-10T06:34:41.286Z,17.43
2023-05-10T06:37:43.616Z,17.39
2023-05-10T06:40:46.221Z,17.75
2023-05-10T06:43:48.538Z,18.33
2023-05-10T06:46:51.656Z,18.24
2023-05-10T06:49:54.061Z,17.57
2023-05-10T06:52:56.904Z,18.22
2023-05-10T06:56:19.111Z,21.76
2023-05-10T06:59:22.671Z,25.99
2023-05-10T07:02:25.072Z,27.00
2023-05-10T07:05:29.095Z,25.17
2023-05-10T07:08:32.185Z,28.12
2023-05-10T07:11:34.842Z,30.28
2023-05-10T07:14:37.265Z,30.25
2023-05-10T07:17:40.842Z,28.83
2023-05-10T07:20:44.898Z,29.18
2023-05-10T07:23:47.610Z,26.20
2023-05-10T07:26:49.955Z,26.38
2023-05-10T07:29:52.555Z,24.43
2023-05-10T07:32:54.878Z,24.51
2023-05-10T07:35:57.501Z,26.60
2023-05-10T07:38:59.749Z,26.13
2023-05-10T07:42:02.365Z,29.68
2023-05-10T07:45:05.027Z,31.37
2023-05-10T07:48:07.727Z,29.65
2023-05-10T07:51:10.537Z,27.49
2023-05-10T07:54:13.736Z,28.85
2023-05-10T07:57:18.587Z,29.11
2023-05-10T08:00:21.499Z,31.06
2023-05-10T08:03:24.455Z,32.06
2023-05-10T08:06:31.064Z,28.42
2023-05-10T08:09:34.298Z,26.88
2023-05-10T08:12:36.579Z,27.76
2023-05-10T08:15:39.198Z,25.62
2023-05-10T08:18:41.590Z,25.18
2023-05-10T08:21:44.210Z,24.96
2023-05-10T08:24:46.473Z,23.33
2023-05-10T08:27:49.106Z,24.00
2023-05-10T08:30:51.529Z,29.25
2023-05-10T08:33:54.153Z,28.03
2023-05-10T08:36:56.569Z,26.64
2023-05-10T08:39:59.253Z,24.04
2023-05-10T08:43:06.369Z,23.00
2023-05-10T08:46:10.317Z,24.91
2023-05-10T08:49:14.185Z,24.57
2023-05-10T08:52:17.593Z,25.47
2023-05-10T08:55:19.972Z,25.60
2023-05-10T08:58:22.663Z,26.61
2023-05-10T09:01:25.548Z,29.11
2023-05-10T09:04:29.023Z,31.19
2023-05-10T09:07:31.728Z,29.85
2023-05-10T09:10:34.371Z,28.84
2023-05-10T09:13:37.135Z,30.05
2023-05-10T09:16:39.863Z,28.27
2023-05-10T09:19:42.419Z,25.92
2023-05-10T09:22:45.668Z,25.05
2023-05-10T09:25:48.626Z,24.44
2023-05-10T09:28:51.508Z,24.17
2023-05-10T09:31:55.878Z,22.86
2023-05-10T09:34:58.521Z,23.12
2023-05-10T09:38:02.027Z,23.33
2023-05-10T09:41:05.082Z,22.90
2023-05-10T09:44:08.444Z,22.79
2023-05-10T09:47:11.021Z,22.89
2023-05-10T09:50:13.373Z,22.20
2023-05-10T09:53:16.886Z,21.92
2023-05-10T09:56:46.418Z,21.30
2023-05-10T09:59:49.244Z,21.28
2023-05-10T10:02:59.400Z,21.36
2023-05-10T10:06:01.989Z,22.23
2023-05-10T10:09:04.805Z,21.90
2023-05-10T10:12:07.488Z,22.13
2023-05-10T10:15:10.488Z,22.94
2023-05-10T10:18:19.065Z,22.44
2023-05-10T10:21:21.562Z,22.41
2023-05-10T10:24:24.147Z,22.06
2023-05-10T10:27:50.012Z,22.22
2023-05-10T10:30:54.683Z,23.12
2023-05-10T10:34:00.449Z,23.27
2023-05-10T10:37:05.764Z,22.31
2023-05-10T10:40:27.258Z,21.97
2023-05-10T10:43:30.537Z,21.64
2023-05-10T10:46:35.351Z,21.62
2023-05-10T10:49:40.826Z,20.73
2023-05-10T10:52:46.977Z,20.81
2023-05-10T10:55:49.822Z,20.96
2023-05-10T10:58:53.496Z,21.42
2023-05-10T11:01:56.269Z,21.51
2023-05-10T11:04:58.703Z,22.19
2023-05-10T11:08:01.596Z,22.43
2023-05-10T11:11:08.085Z,22.58
2023-05-10T11:14:10.906Z,22.22
2023-05-10T11:17:30.262Z,22.02
2023-05-10T11:20:40.351Z,22.12
2023-05-10T11:23:49.103Z,21.94
2023-05-10T11:26:52.714Z,21.67
2023-05-10T11:29:55.253Z,22.66
2023-05-10T11:32:57.893Z,23.43
2023-05-10T11:36:00.306Z,23.26
2023-05-10T11:39:03.976Z,22.95
2023-05-10T11:42:06.334Z,22.45
2023-05-10T11:45:09.147Z,22.47
2023-05-10T11:48:11.574Z,22.20
2023-05-10T11:51:14.304Z,21.46
2023-05-10T11:54:16.640Z,21.47
2023-05-10T11:57:19.988Z,21.69
2023-05-10T12:00:22.460Z,21.03
2023-05-10T12:03:25.234Z,20.38
2023-05-10T12:06:28.730Z,20.67
2023-05-10T12:09:40.087Z,20.92
2023-05-10T12:12:46.556Z,21.17
2023-05-10T12:15:49.357Z,20.69
2023-05-10T12:18:52.491Z,20.70
2023-05-10T12:21:55.237Z,20.92
2023-05-10T12:24:59.609Z,20.64
2023-05-10T12:28:04.731Z,20.43
2023-05-10T12:31:07.874Z,20.35
2023-05-10T12:34:10.383Z,20.75
2023-05-10T12:37:13.300Z,21.27
2023-05-10T12:40:16.100Z,21.01
2023-05-10T12:43:18.696Z,20.76
2023-05-10T12:46:21.331Z,20.58
2023-05-10T12:49:23.750Z,20.64
2023-05-10T12:52:27.033Z,20.79
2023-05-10T12:55:29.255Z,20.99
2023-05-10T12:58:35.856Z,21.09
2023-05-10T13:01:38.728Z,20.17
2023-05-10T13:04:41.846Z,19.85
2023-05-10T13:07:44.932Z,19.91
2023-05-10T13:10:47.542Z,19.43
2023-05-10T13:13:49.832Z,19.56
2023-05-10T13:16:52.444Z,19.50
2023-05-10T13:19:54.784Z,19.38
2023-05-10T13:22:57.416Z,19.18
2023-05-10T13:25:59.901Z,19.34
2023-05-10T13:29:02.472Z,19.23
2023-05-10T13:32:04.966Z,19.86
2023-05-10T13:35:07.892Z,20.54
2023-05-10T13:38:11.735Z,20.64
2023-05-10T13:41:14.524Z,20.61
2023-05-10T13:44:16.897Z,20.79
2023-05-10T13:47:19.601Z,20.68
2023-05-10T13:50:21.892Z,20.73
2023-05-10T13:53:24.425Z,20.20
2023-05-10T13:56:26.748Z,20.55
2023-05-10T13:59:29.783Z,21.02
2023-05-10T14:02:32.353Z,20.91
2023-05-10T14:05:35.011Z,20.62
2023-05-10T14:08:37.520Z,21.36
2023-05-10T14:11:44.003Z,21.76
2023-05-10T14:14:46.516Z,21.51
2023-05-10T14:17:49.173Z,21.51
2023-05-10T14:20:51.547Z,21.41
2023-05-10T14:23:55.399Z,21.66
2023-05-10T14:26:58.006Z,22.05
2023-05-10T14:30:00.664Z,21.96
2023-05-10T14:33:03.661Z,22.15
2023-05-10T14:36:07.241Z,22.01
2023-05-10T14:39:11.123Z,22.21
2023-05-10T14:42:13.660Z,22.38
2023-05-10T14:45:16.167Z,22.10
2023-05-10T14:48:19.062Z,20.91
2023-05-10T14:51:22.787Z,20.59
2023-05-10T14:54:25.421Z,20.32
2023-05-10T14:57:30.552Z,20.27
2023-05-10T15:00:33.153Z,19.67
2023-05-10T15:03:38.696Z,19.47
2023-05-10T15:06:42.030Z,19.36
2023-05-10T15:09:44.368Z,19.21
2023-05-10T15:12:47.203Z,18.99
2023-05-10T15:15:49.564Z,18.93
2023-05-10T15:18:52.530Z,18.60
2023-05-10T15:21:54.883Z,18.55
2023-05-10T15:24:57.411Z,18.41
2023-05-10T15:27:59.632Z,18.24
2023-05-10T15:31:02.197Z,18.21
2023-05-10T15:34:04.516Z,18.18
2023-05-10T15:37:07.256Z,18.09
2023-05-10T15:40:09.701Z,18.09
2023-05-10T15:43:12.461Z,18.12
2023-05-10T15:46:14.839Z,18.16
2023-05-10T15:49:17.381Z,18.01
2023-05-10T15:52:21.079Z,18.05
2023-05-10T15:55:23.598Z,18.25
2023-05-10T15:58:25.850Z,18.51
2023-05-10T16:01:28.750Z,18.57
2023-05-10T16:04:31.367Z,18.70
2023-05-10T16:07:34.062Z,18.79
2023-05-10T16:10:36.902Z,18.80
2023-05-10T16:13:39.172Z,18.66
2023-05-10T16:16:42.103Z,18.60
2023-05-10T16:19:44.642Z,18.64
2023-05-10T16:22:47.387Z,18.69
2023-05-10T16:25:49.726Z,18.58
2023-05-10T16:28:52.336Z,18.76
2023-05-10T16:31:55.077Z,18.70
2023-05-10T16:34:58.478Z,18.51
2023-05-10T16:38:01.085Z,18.50
2023-05-10T16:41:03.826Z,18.44
2023-05-10T16:44:06.222Z,18.28
2023-05-10T16:47:08.771Z,18.23
2023-05-10T16:50:11.561Z,18.23
2023-05-10T16:53:14.287Z,18.20
2023-05-10T16:56:18.389Z,18.12
2023-05-10T16:59:20.987Z,18.07
2023-05-10T17:02:23.677Z,17.95
2023-05-10T17:05:26.462Z,18.00
2023-05-10T17:08:28.741Z,17.91
2023-05-10T17:11:31.901Z,17.90
2023-05-10T17:14:34.666Z,17.74
2023-05-10T17:17:37.536Z,17.62
2023-05-10T17:20:39.852Z,17.58
2023-05-10T17:23:42.462Z,17.43
2023-05-10T17:26:45.023Z,17.34
2023-05-10T17:29:47.612Z,17.32
2023-05-10T17:32:51.235Z,17.26
2023-05-10T17:35:53.892Z,17.19
2023-05-10T17:38:56.319Z,17.23
2023-05-10T17:41:58.972Z,17.09
2023-05-10T17:45:01.309Z,17.03
2023-05-10T17:48:04.307Z,16.94
2023-05-10T17:51:06.962Z,16.88
2023-05-10T17:54:09.653Z,16.78
2023-05-10T17:57:11.871Z,16.67
2023-05-10T18:00:14.657Z,16.64
2023-05-10T18:03:17.352Z,16.60
2023-05-10T18:06:19.956Z,16.44
2023-05-10T18:09:22.557Z,16.31
2023-05-10T18:12:24.937Z,16.43
2023-05-10T18:15:27.859Z,16.26
2023-05-10T18:18:30.427Z,16.11
2023-05-10T18:21:33.190Z,16.11
2023-05-10T18:24:41.014Z,16.06
2023-05-10T18:27:43.943Z,15.93
2023-05-10T18:30:46.709Z,15.85
2023-05-10T18:33:49.760Z,15.79
2023-05-10T18:36:52.516Z,15.73
2023-05-10T18:39:55.793Z,15.65
2023-05-10T18:42:58.447Z,15.70
2023-05-10T18:46:01.615Z,15.59
2023-05-10T18:49:05.394Z,15.58
2023-05-10T18:52:08.327Z,15.54
2023-05-10T18:55:11.062Z,15.52
2023-05-10T18:58:14.033Z,15.42
2023-05-10T19:01:16.948Z,15.37
2023-05-10T19:04:20.160Z,15.35
2023-05-10T19:07:25.754Z,15.37
2023-05-10T19:10:28.844Z,15.42
2023-05-10T19:13:31.544Z,15.34
2023-05-10T19:16:35.643Z,15.30
2023-05-10T19:19:38.688Z,15.28
2023-05-10T19:22:51.527Z,15.28
2023-05-10T19:26:01.274Z,15.29
2023-05-10T19:29:05.054Z,15.33
2023-05-10T19:32:07.946Z,15.30
2023-05-10T19:35:13.187Z,15.20
2023-05-10T19:38:16.510Z,15.17
2023-05-10T19:41:19.392Z,15.18
2023-05-10T19:44:23.051Z,15.17
2023-05-10T19:47:26.077Z,15.15
2023-05-10T19:50:28.844Z,15.12
2023-05-10T19:53:32.307Z,15.17
2023-05-10T19:56:35.123Z,15.08
2023-05-10T19:59:38.342Z,15.04
2023-05-10T20:02:40.962Z,14.97
2023-05-10T20:05:43.868Z,15.01
2023-05-10T20:08:46.589Z,14.97
2023-05-10T20:11:49.290Z,15.03
2023-05-10T20:14:51.735Z,14.98
2023-05-10T20:17:55.112Z,14.96
2023-05-10T20:20:58.857Z,14.91
2023-05-10T20:24:01.984Z,14.88
2023-05-10T20:27:04.655Z,14.95
2023-05-10T20:30:07.755Z,14.97
2023-05-10T20:33:10.584Z,14.93
2023-05-10T20:36:14.969Z,14.88
2023-05-10T20:39:17.710Z,14.87
2023-05-10T20:42:21.686Z,14.84
2023-05-10T20:45:24.423Z,14.83
2023-05-10T20:48:27.332Z,14.77
2023-05-10T20:51:30.452Z,14.80
2023-05-10T20:54:33.078Z,14.79
2023-05-10T20:57:35.460Z,14.81
2023-05-10T21:00:38.134Z,14.77
2023-05-10T21:03:43.299Z,14.73
2023-05-10T21:06:45.963Z,14.75
2023-05-10T21:09:48.247Z,14.75
2023-05-10T21:12:50.775Z,14.72
2023-05-10T21:15:53.465Z,14.54
2023-05-10T21:18:56.089Z,14.49
2023-05-10T21:21:59.740Z,14.40
2023-05-10T21:25:02.303Z,14.48
2023-05-10T21:28:05.326Z,14.37
2023-05-10T21:31:08.041Z,14.27
2023-05-10T21:34:10.432Z,14.26
2023-05-10T21:37:12.959Z,14.19
2023-05-10T21:40:15.515Z,14.12
2023-05-10T21:43:18.272Z,14.24
2023-05-10T21:46:20.577Z,14.20
2023-05-10T21:49:23.284Z,14.05
2023-05-10T21:52:25.598Z,13.93
2023-05-10T21:55:28.201Z,13.91
2023-05-10T21:58:30.623Z,13.87
2023-05-10T22:01:33.554Z,13.95
2023-05-10T22:04:36.191Z,13.90
2023-05-10T22:07:38.482Z,13.86
2023-05-10T22:10:41.085Z,13.86
2023-05-10T22:13:43.490Z,14.03
2023-05-10T22:16:46.103Z,14.03
2023-05-10T22:19:48.415Z,13.99
2023-05-10T22:22:51.257Z,14.00
2023-05-10T22:25:53.571Z,14.12
2023-05-10T22:28:56.113Z,14.12
2023-05-10T22:31:58.467Z,14.08
2023-05-10T22:35:01.066Z,14.26
2023-05-10T22:38:03.465Z,14.18
2023-05-10T22:41:06.596Z,14.05
2023-05-10T22:44:08.908Z,14.15
2023-05-10T22:47:11.517Z,14.06
2023-05-10T22:50:15.837Z,13.92
2023-05-10T22:53:18.535Z,13.88
2023-05-10T22:56:22.065Z,13.77
2023-05-10T22:59:24.694Z,13.68
2023-05-10T23:02:27.294Z,13.55
2023-05-10T23:05:29.971Z,13.56
2023-05-10T23:08:32.281Z,13.44
2023-05-10T23:11:34.868Z,13.33
2023-05-10T23:14:37.222Z,13.38
2023-05-10T23:17:39.846Z,13.37
2023-05-10T23:20:42.905Z,13.44
2023-05-10T23:23:47.020Z,13.49
2023-05-10T23:26:49.412Z,13.55
2023-05-10T23:29:55.578Z,13.57
2023-05-10T23:32:58.007Z,13.65
2023-05-10T23:36:00.932Z,13.71
2023-05-10T23:39:03.272Z,13.58
2023-05-10T23:42:06.157Z,13.48
2023-05-10T23:45:08.702Z,13.49
2023-05-10T23:48:11.643Z,13.42
2023-05-10T23:51:14.030Z,13.34
2023-05-10T23:54:16.624Z,13.30
2023-05-10T23:57:19.354Z,13.36
